Cytokinetics Inc (CYTK)

Market is closed
Insider Trading: Sales
Insider Price Amount Total Value Remaining Holdings Date Form 4
$62.15 23,928 $1,487,125.20 430,330 2026-03-17 Filing
$62.15 12,673 $787,626.95 454,258 2026-03-17 Filing
$62.07 1,930 $119,795.10 78,185 2026-03-18 Filing
$61.03 1,709 $104,300.27 46,149 2026-03-16 Filing
$60.72 2,582 $156,779.04 47,858 2026-03-09 Filing
$60.72 7,931 $481,570.32 391,673 2026-03-09 Filing
$61.88 11,000 $680,680.00 50,440 2026-03-05 Filing
$61.87 15,000 $928,050.00 61,440 2026-03-05 Filing
$61.21 5,000 $306,050.00 17,933 2026-03-02 Filing
$61.62 886 $54,595.32 50,440 2026-03-02 Filing
$61.93 15,000 $928,950.00 50,440 2026-02-05 Filing
$62.10 886 $55,020.60 50,440 2026-02-02 Filing
$60.28 15,000 $904,200.00 50,440 2026-01-05 Filing
$63.16 885 $55,896.60 50,440 2026-01-02 Filing
$62.09 913 $56,688.17 50,440 2026-01-02 Filing
$62.44 1,809 $112,953.96 51,353 2025-12-29 Filing
$66.14 20,000 $1,322,800.00 32,444 2025-12-22 Filing
$61.24 2,200 $134,728.00 138,552 2025-12-16 Filing
$65.96 1,042 $68,730.32 50,660 2025-12-08 Filing
$65.95 52,486 $3,461,451.70 50,660 2025-12-05 Filing